createdAt,value
2019-04-05T00:00:27.229Z,9.94
2019-04-05T00:01:31.517Z,9.93
2019-04-05T00:02:35.804Z,9.91
2019-04-05T00:03:40.079Z,9.86
2019-04-05T00:04:44.474Z,9.81
2019-04-05T00:05:48.780Z,9.78
2019-04-05T00:06:53.010Z,9.76
2019-04-05T00:07:57.321Z,9.76
2019-04-05T00:09:01.626Z,9.76
2019-04-05T00:10:05.907Z,9.77
2019-04-05T00:11:10.232Z,9.78
2019-04-05T00:12:14.578Z,9.78
2019-04-05T00:13:18.899Z,9.77
2019-04-05T00:14:23.165Z,9.77
2019-04-05T00:15:27.575Z,9.76
2019-04-05T00:16:31.889Z,9.74
2019-04-05T00:17:36.147Z,9.73
2019-04-05T00:18:40.511Z,9.73
2019-04-05T00:19:44.750Z,9.74
2019-04-05T00:20:49.015Z,9.75
2019-04-05T00:21:53.273Z,9.76
2019-04-05T00:22:57.565Z,9.76
2019-04-05T00:24:01.825Z,9.76
2019-04-05T00:25:06.149Z,9.77
2019-04-05T00:26:10.525Z,9.79
2019-04-05T00:27:14.801Z,9.80
2019-04-05T00:28:19.158Z,9.82
2019-04-05T00:29:23.410Z,9.84
2019-04-05T00:30:27.782Z,9.84
2019-04-05T00:31:32.038Z,9.85
2019-04-05T00:32:36.379Z,9.85
2019-04-05T00:33:40.591Z,9.86
2019-04-05T00:34:44.928Z,9.87
2019-04-05T00:35:49.347Z,9.87
2019-04-05T00:36:53.672Z,9.87
2019-04-05T00:37:57.843Z,9.88
2019-04-05T00:39:02.180Z,9.88
2019-04-05T00:40:06.574Z,9.89
2019-04-05T00:41:10.868Z,9.89
2019-04-05T00:42:15.246Z,9.90
2019-04-05T00:43:22.406Z,9.90
2019-04-05T00:44:25.869Z,9.91
2019-04-05T00:45:30.181Z,9.90
2019-04-05T00:46:34.421Z,9.89
2019-04-05T00:47:38.691Z,9.90
2019-04-05T00:48:42.964Z,9.90
2019-04-05T00:49:47.270Z,9.92
2019-04-05T00:50:51.578Z,9.94
2019-04-05T00:51:55.913Z,9.95
2019-04-05T00:53:00.174Z,9.95
2019-04-05T00:54:04.534Z,9.95
2019-04-05T00:55:08.784Z,9.93
2019-04-05T00:56:13.145Z,9.89
2019-04-05T00:57:17.382Z,9.83
2019-04-05T00:58:21.754Z,9.76
2019-04-05T00:59:25.989Z,9.72
2019-04-05T01:00:30.314Z,9.69
2019-04-05T01:01:34.618Z,9.66
2019-04-05T01:02:38.872Z,9.66
2019-04-05T01:03:43.138Z,9.63
2019-04-05T01:04:47.503Z,9.62
2019-04-05T01:05:51.780Z,9.60
2019-04-05T01:06:56.065Z,9.60
2019-04-05T01:08:00.241Z,9.59
2019-04-05T01:09:04.663Z,9.61
2019-04-05T01:10:08.897Z,9.63
2019-04-05T01:11:13.277Z,9.67
2019-04-05T01:12:17.521Z,9.70
2019-04-05T01:13:21.832Z,9.74
2019-04-05T01:14:26.145Z,9.77
2019-04-05T01:15:40.356Z,9.81
2019-04-05T01:16:34.685Z,9.85
2019-04-05T01:17:38.996Z,9.89
2019-04-05T01:18:43.258Z,9.93
2019-04-05T01:19:47.540Z,9.95
2019-04-05T01:20:51.913Z,9.96
2019-04-05T01:21:56.156Z,9.99
2019-04-05T01:23:00.371Z,9.99
2019-04-05T01:24:04.777Z,9.98
2019-04-05T01:25:09.047Z,9.99
2019-04-05T01:26:13.451Z,9.98
2019-04-05T01:27:17.823Z,9.97
2019-04-05T01:28:22.030Z,9.98
2019-04-05T01:29:26.327Z,9.98
2019-04-05T01:30:30.625Z,9.96
2019-04-05T01:31:34.902Z,9.95
2019-04-05T01:32:39.221Z,9.95
2019-04-05T01:33:43.516Z,9.93
2019-04-05T01:34:47.712Z,9.92
2019-04-05T01:35:52.031Z,9.91
2019-04-05T01:36:56.327Z,9.90
2019-04-05T01:38:03.623Z,9.88
2019-04-05T01:39:06.968Z,9.87
2019-04-05T01:40:11.366Z,9.86
2019-04-05T01:41:15.682Z,9.85
2019-04-05T01:42:19.892Z,9.82
2019-04-05T01:43:24.187Z,9.79
2019-04-05T01:44:28.463Z,9.77
2019-04-05T01:45:32.774Z,9.75
2019-04-05T01:46:37.104Z,9.72
2019-04-05T01:47:41.392Z,9.70
2019-04-05T01:48:45.777Z,9.68
2019-04-05T01:49:50.010Z,9.66
2019-04-05T01:50:54.284Z,9.63
2019-04-05T01:51:58.568Z,9.59
2019-04-05T01:53:02.829Z,9.56
2019-04-05T01:54:07.097Z,9.54
2019-04-05T01:55:11.393Z,9.51
2019-04-05T01:56:15.656Z,9.48
2019-04-05T01:57:19.941Z,9.45
2019-04-05T01:58:24.242Z,9.42
2019-04-05T01:59:28.547Z,9.40
2019-04-05T02:00:32.924Z,9.38
2019-04-05T02:01:37.163Z,9.36
2019-04-05T02:02:41.477Z,9.34
2019-04-05T02:03:45.780Z,9.33
2019-04-05T02:04:52.646Z,9.31
2019-04-05T02:05:54.326Z,9.30
2019-04-05T02:06:58.596Z,9.28
2019-04-05T02:08:02.992Z,9.26
2019-04-05T02:09:07.224Z,9.25
2019-04-05T02:10:11.617Z,9.24
2019-04-05T02:11:15.857Z,9.23
2019-04-05T02:12:20.119Z,9.22
2019-04-05T02:13:24.441Z,9.20
2019-04-05T02:14:28.766Z,9.19
2019-04-05T02:15:33.050Z,9.17
2019-04-05T02:16:37.313Z,9.16
2019-04-05T02:17:41.572Z,9.16
2019-04-05T02:18:45.852Z,9.16
2019-04-05T02:19:50.121Z,9.17
2019-04-05T02:20:54.395Z,9.17
2019-04-05T02:21:58.677Z,9.17
2019-04-05T02:23:03.065Z,9.16
2019-04-05T02:24:07.326Z,9.14
2019-04-05T02:25:11.591Z,9.13
2019-04-05T02:26:15.886Z,9.13
2019-04-05T02:27:20.127Z,9.13
2019-04-05T02:28:25.551Z,9.14
2019-04-05T02:29:28.730Z,9.15
2019-04-05T02:30:32.989Z,9.16
2019-04-05T02:31:37.285Z,9.16
2019-04-05T02:32:41.556Z,9.15
2019-04-05T02:33:45.828Z,9.15
2019-04-05T02:34:50.200Z,9.14
2019-04-05T02:35:54.433Z,9.14
2019-04-05T02:36:58.719Z,9.13
2019-04-05T02:38:03.038Z,9.13
2019-04-05T02:39:07.296Z,9.12
2019-04-05T02:40:11.693Z,9.12
2019-04-05T02:41:15.987Z,9.12
2019-04-05T02:42:20.100Z,9.13
2019-04-05T02:43:24.420Z,9.13
2019-04-05T02:44:28.754Z,9.13
2019-04-05T02:45:33.136Z,9.12
2019-04-05T02:46:37.324Z,9.10
2019-04-05T02:47:41.645Z,9.09
2019-04-05T02:48:45.935Z,9.07
2019-04-05T02:49:50.253Z,9.06
2019-04-05T02:50:54.545Z,9.06
2019-04-05T02:51:58.895Z,9.06
2019-04-05T02:53:03.132Z,9.07
2019-04-05T02:54:07.599Z,9.08
2019-04-05T02:55:11.795Z,9.08
2019-04-05T02:56:16.083Z,9.08
2019-04-05T02:57:20.378Z,9.08
2019-04-05T02:58:24.660Z,9.06
2019-04-05T02:59:29.073Z,9.04
2019-04-05T03:00:33.272Z,9.02
2019-04-05T03:01:37.523Z,9.00
2019-04-05T03:02:41.802Z,9.00
2019-04-05T03:03:46.112Z,9.00
2019-04-05T03:04:50.374Z,8.99
2019-04-05T03:05:54.727Z,8.99
2019-04-05T03:06:58.944Z,8.97
2019-04-05T03:08:03.217Z,8.96
2019-04-05T03:09:07.502Z,8.96
2019-04-05T03:10:11.792Z,8.96
2019-04-05T03:11:16.084Z,8.96
2019-04-05T03:12:20.365Z,8.96
2019-04-05T03:13:24.635Z,8.97
2019-04-05T03:14:29.028Z,8.98
2019-04-05T03:15:33.399Z,8.99
2019-04-05T03:16:41.360Z,8.99
2019-04-05T03:17:41.794Z,8.96
2019-04-05T03:18:46.033Z,8.95
2019-04-05T03:19:50.371Z,8.93
2019-04-05T03:20:54.649Z,8.92
2019-04-05T03:21:58.948Z,8.91
2019-04-05T03:23:03.242Z,8.91
2019-04-05T03:24:07.517Z,8.90
2019-04-05T03:25:11.805Z,8.90
2019-04-05T03:26:16.173Z,8.89
2019-04-05T03:27:20.464Z,8.88
2019-04-05T03:28:24.672Z,8.87
2019-04-05T03:29:28.971Z,8.86
2019-04-05T03:30:33.254Z,8.86
2019-04-05T03:31:37.538Z,8.87
2019-04-05T03:32:41.817Z,8.87
2019-04-05T03:33:46.104Z,8.86
2019-04-05T03:34:50.408Z,8.86
2019-04-05T03:35:54.686Z,8.85
2019-04-05T03:36:58.965Z,8.86
2019-04-05T03:38:03.252Z,8.87
2019-04-05T03:39:07.523Z,8.89
2019-04-05T03:40:11.815Z,8.90
2019-04-05T03:41:16.085Z,8.92
2019-04-05T03:42:20.389Z,8.92
2019-04-05T03:43:24.673Z,8.93
2019-04-05T03:44:29.047Z,8.93
2019-04-05T03:45:33.386Z,8.92
2019-04-05T03:46:37.505Z,8.91
2019-04-05T03:47:41.825Z,8.90
2019-04-05T03:48:46.188Z,8.90
2019-04-05T03:49:50.395Z,8.90
2019-04-05T03:50:54.657Z,8.90
2019-04-05T03:51:59.060Z,8.89
2019-04-05T03:53:03.264Z,8.87
2019-04-05T03:54:07.558Z,8.84
2019-04-05T03:55:11.947Z,8.82
2019-04-05T03:56:16.271Z,8.80
2019-04-05T03:57:20.498Z,8.79
2019-04-05T03:58:24.822Z,8.78
2019-04-05T03:59:28.981Z,8.76
2019-04-05T04:00:33.341Z,8.73
2019-04-05T04:01:37.601Z,8.69
2019-04-05T04:02:41.867Z,8.65
2019-04-05T04:03:46.134Z,8.61
2019-04-05T04:04:50.313Z,8.59
2019-04-05T04:05:54.650Z,8.58
2019-04-05T04:06:58.903Z,8.57
2019-04-05T04:08:03.136Z,8.55
2019-04-05T04:09:07.374Z,8.54
2019-04-05T04:10:11.680Z,8.52
2019-04-05T04:11:15.932Z,8.51
2019-04-05T04:12:20.162Z,8.51
2019-04-05T04:13:24.428Z,8.50
2019-04-05T04:14:28.684Z,8.49
2019-04-05T04:15:32.884Z,8.47
2019-04-05T04:16:37.215Z,8.46
2019-04-05T04:17:41.421Z,8.45
2019-04-05T04:18:45.699Z,8.45
2019-04-05T04:19:49.882Z,8.45
2019-04-05T04:20:54.229Z,8.45
2019-04-05T04:21:58.495Z,8.44
2019-04-05T04:23:02.759Z,8.43
2019-04-05T04:24:06.906Z,8.41
2019-04-05T04:25:11.230Z,8.39
2019-04-05T04:26:15.526Z,8.39
2019-04-05T04:27:19.705Z,8.39
2019-04-05T04:28:24.049Z,8.39
2019-04-05T04:29:28.172Z,8.37
2019-04-05T04:30:32.504Z,8.36
2019-04-05T04:31:36.776Z,8.34
2019-04-05T04:32:41.136Z,8.31
2019-04-05T04:33:45.255Z,8.28
2019-04-05T04:34:49.584Z,8.27
2019-04-05T04:35:53.866Z,8.25
2019-04-05T04:36:58.099Z,8.24
2019-04-05T04:38:02.354Z,8.23
2019-04-05T04:39:06.645Z,8.22
2019-04-05T04:40:10.810Z,8.22
2019-04-05T04:41:15.123Z,8.24
2019-04-05T04:42:19.350Z,8.24
2019-04-05T04:43:26.508Z,8.23
2019-04-05T04:44:29.894Z,8.22
2019-04-05T04:45:34.146Z,8.21
2019-04-05T04:46:38.321Z,8.20
2019-04-05T04:47:42.671Z,8.21
2019-04-05T04:48:46.823Z,8.21
2019-04-05T04:49:51.218Z,8.22
2019-04-05T04:50:55.457Z,8.22
2019-04-05T04:51:59.759Z,8.23
2019-04-05T04:53:04.040Z,8.24
2019-04-05T04:54:08.400Z,8.26
2019-04-05T04:55:12.613Z,8.29
2019-04-05T04:56:16.917Z,8.32
2019-04-05T04:57:21.200Z,8.35
2019-04-05T04:58:25.421Z,8.37
2019-04-05T04:59:29.694Z,8.36
2019-04-05T05:00:33.982Z,8.35
2019-04-05T05:01:38.344Z,8.32
2019-04-05T05:02:42.539Z,8.31
2019-04-05T05:03:46.836Z,8.30
2019-04-05T05:04:51.086Z,8.29
2019-04-05T05:05:55.367Z,8.29
2019-04-05T05:06:59.684Z,8.30
2019-04-05T05:08:03.845Z,8.32
2019-04-05T05:09:08.179Z,8.33
2019-04-05T05:10:12.381Z,8.34
2019-04-05T05:11:16.716Z,8.34
2019-04-05T05:12:21.011Z,8.34
2019-04-05T05:13:25.181Z,8.34
2019-04-05T05:14:29.399Z,8.35
2019-04-05T05:15:33.723Z,8.35
2019-04-05T05:16:38.138Z,8.35
2019-04-05T05:17:42.377Z,8.35
2019-04-05T05:18:46.740Z,8.35
2019-04-05T05:19:51.021Z,8.35
2019-04-05T05:20:55.231Z,8.36
2019-04-05T05:21:59.520Z,8.36
2019-04-05T05:23:03.692Z,8.37
2019-04-05T05:24:07.999Z,8.39
2019-04-05T05:25:12.158Z,8.42
2019-04-05T05:26:16.489Z,8.45
2019-04-05T05:27:20.811Z,8.49
2019-04-05T05:28:24.878Z,8.53
2019-04-05T05:29:29.261Z,8.56
2019-04-05T05:30:33.648Z,8.60
2019-04-05T05:31:37.881Z,8.67
2019-04-05T05:32:42.256Z,8.78
2019-04-05T05:33:46.454Z,8.90
2019-04-05T05:35:01.432Z,9.07
2019-04-05T05:35:55.013Z,9.27
2019-04-05T05:36:59.317Z,9.49
2019-04-05T05:38:03.677Z,9.73
2019-04-05T05:39:08.075Z,9.94
2019-04-05T05:40:12.349Z,10.15
2019-04-05T05:41:16.658Z,10.34
2019-04-05T05:42:20.977Z,10.48
2019-04-05T05:43:25.290Z,10.61
2019-04-05T05:44:29.627Z,10.73
2019-04-05T05:45:34.030Z,10.86
2019-04-05T05:46:38.315Z,10.94
2019-04-05T05:47:51.794Z,10.99
2019-04-05T05:48:46.949Z,11.07
2019-04-05T05:49:51.247Z,11.12
2019-04-05T05:50:55.377Z,11.14
2019-04-05T05:51:59.666Z,11.15
2019-04-05T05:53:03.951Z,11.13
2019-04-05T05:54:08.275Z,11.10
2019-04-05T05:55:12.461Z,11.07
2019-04-05T05:56:16.815Z,11.03
2019-04-05T05:57:21.063Z,10.97
2019-04-05T05:58:25.869Z,10.90
2019-04-05T05:59:30.224Z,10.81
2019-04-05T06:00:33.974Z,10.76
2019-04-05T06:01:38.239Z,10.71
2019-04-05T06:02:42.557Z,10.66
2019-04-05T06:03:46.941Z,10.60
2019-04-05T06:04:51.163Z,10.53
2019-04-05T06:06:04.191Z,10.50
2019-04-05T06:06:59.785Z,10.48
2019-04-05T06:08:04.068Z,10.46
2019-04-05T06:09:08.489Z,10.45
2019-04-05T06:10:12.816Z,10.45
2019-04-05T06:11:17.072Z,10.47
2019-04-05T06:12:21.358Z,10.50
2019-04-05T06:13:25.663Z,10.54
2019-04-05T06:14:29.967Z,10.59
2019-04-05T06:15:37.311Z,10.65
2019-04-05T06:16:46.327Z,10.70
2019-04-05T06:17:42.910Z,10.76
2019-04-05T06:18:48.607Z,10.85
2019-04-05T06:19:51.494Z,10.95
2019-04-05T06:20:55.792Z,11.05
2019-04-05T06:22:00.099Z,11.14
2019-04-05T06:23:04.499Z,11.26
2019-04-05T06:24:08.867Z,11.36
2019-04-05T06:25:13.130Z,11.46
2019-04-05T06:26:17.430Z,11.54
2019-04-05T06:27:21.736Z,11.65
2019-04-05T06:28:26.081Z,11.75
2019-04-05T06:29:30.520Z,11.85
2019-04-05T06:30:34.891Z,11.91
2019-04-05T06:31:39.046Z,11.94
2019-04-05T06:32:43.358Z,11.96
2019-04-05T06:33:47.699Z,12.00
2019-04-05T06:34:51.990Z,12.04
2019-04-05T06:35:56.331Z,12.06
2019-04-05T06:37:00.646Z,12.08
2019-04-05T06:38:04.843Z,12.09
2019-04-05T06:39:09.196Z,12.10
2019-04-05T06:40:13.431Z,12.10
2019-04-05T06:41:17.689Z,12.12
2019-04-05T06:42:22.055Z,12.13
2019-04-05T06:43:26.429Z,12.15
2019-04-05T06:44:30.608Z,12.16
2019-04-05T06:45:34.984Z,12.17
2019-04-05T06:46:39.295Z,12.17
2019-04-05T06:47:43.614Z,12.17
2019-04-05T06:48:47.893Z,12.13
2019-04-05T06:49:52.216Z,12.12
2019-04-05T06:50:56.544Z,12.10
2019-04-05T06:52:00.790Z,12.12
2019-04-05T06:53:05.044Z,12.14
2019-04-05T06:54:09.401Z,12.18
2019-04-05T06:55:13.638Z,12.21
2019-04-05T06:56:17.995Z,12.27
2019-04-05T06:57:22.294Z,12.30
2019-04-05T06:58:28.981Z,12.34
2019-04-05T06:59:30.898Z,12.39
2019-04-05T07:00:35.286Z,12.44
2019-04-05T07:01:39.575Z,12.50
2019-04-05T07:02:43.895Z,12.53
2019-04-05T07:03:48.182Z,12.59
2019-04-05T07:04:52.486Z,12.66
2019-04-05T07:05:56.810Z,12.69
2019-04-05T07:07:01.205Z,12.73
2019-04-05T07:08:05.463Z,12.72
2019-04-05T07:09:09.801Z,12.74
2019-04-05T07:10:14.174Z,12.79
2019-04-05T07:11:18.465Z,12.82
2019-04-05T07:12:22.820Z,12.86
2019-04-05T07:13:27.582Z,12.88
2019-04-05T07:14:31.490Z,12.90
2019-04-05T07:15:35.835Z,12.91
2019-04-05T07:16:40.196Z,12.96
2019-04-05T07:17:44.499Z,12.99
2019-04-05T07:18:48.886Z,13.04
2019-04-05T07:19:53.168Z,13.05
2019-04-05T07:20:57.978Z,13.05
2019-04-05T07:22:01.859Z,13.02
2019-04-05T07:23:06.222Z,13.04
2019-04-05T07:24:10.545Z,13.01
2019-04-05T07:25:14.884Z,13.00
2019-04-05T07:26:20.964Z,13.00
2019-04-05T07:27:23.600Z,13.02
2019-04-05T07:28:27.839Z,13.07
2019-04-05T07:29:32.217Z,13.06
2019-04-05T07:30:36.492Z,13.05
2019-04-05T07:31:40.851Z,13.09
2019-04-05T07:32:45.079Z,13.14
2019-04-05T07:33:49.474Z,13.19
2019-04-05T07:34:53.799Z,13.20
2019-04-05T07:35:58.178Z,13.23
2019-04-05T07:37:02.475Z,13.26
2019-04-05T07:38:09.532Z,13.29
2019-04-05T07:39:11.120Z,13.30
2019-04-05T07:40:15.443Z,13.34
2019-04-05T07:41:19.809Z,13.38
2019-04-05T07:42:24.109Z,13.41
2019-04-05T07:43:28.447Z,13.46
2019-04-05T07:44:32.710Z,13.51
2019-04-05T07:45:37.078Z,13.55
2019-04-05T07:46:41.427Z,13.57
2019-04-05T07:47:45.736Z,13.58
2019-04-05T07:48:50.194Z,13.60
2019-04-05T07:49:54.599Z,13.62
2019-04-05T07:50:58.923Z,13.65
2019-04-05T07:52:03.233Z,13.70
2019-04-05T07:53:07.545Z,13.69
2019-04-05T07:54:11.855Z,13.72
2019-04-05T07:55:16.188Z,13.76
2019-04-05T07:56:20.525Z,13.78
2019-04-05T07:57:24.954Z,13.82
2019-04-05T07:58:29.207Z,13.85
2019-04-05T07:59:33.475Z,13.90
2019-04-05T08:00:37.958Z,13.93
2019-04-05T08:01:42.295Z,13.98
2019-04-05T08:02:46.640Z,13.99
2019-04-05T08:03:50.957Z,13.99
2019-04-05T08:04:55.282Z,14.00
2019-04-05T08:05:59.620Z,14.01
2019-04-05T08:07:03.996Z,14.03
2019-04-05T08:08:08.328Z,14.08
2019-04-05T08:09:12.787Z,14.12
2019-04-05T08:10:17.184Z,14.16
2019-04-05T08:11:21.512Z,14.20
2019-04-05T08:12:25.822Z,14.24
2019-04-05T08:13:30.055Z,14.26
2019-04-05T08:14:34.477Z,14.29
2019-04-05T08:15:38.826Z,14.30
2019-04-05T08:16:43.218Z,14.32
2019-04-05T08:17:47.503Z,14.36
2019-04-05T08:18:57.595Z,14.38
2019-04-05T08:19:56.309Z,14.39
2019-04-05T08:21:00.615Z,14.40
2019-04-05T08:22:04.994Z,14.43
2019-04-05T08:23:09.353Z,14.46
2019-04-05T08:24:13.702Z,14.47
2019-04-05T08:25:18.060Z,14.45
2019-04-05T08:26:22.510Z,14.42
2019-04-05T08:27:26.814Z,14.41
2019-04-05T08:28:31.139Z,14.40
2019-04-05T08:29:35.495Z,14.39
2019-04-05T08:30:39.820Z,14.41
2019-04-05T08:31:44.145Z,14.45
2019-04-05T08:32:48.490Z,14.49
2019-04-05T08:33:52.837Z,14.51
2019-04-05T08:34:57.222Z,14.52
2019-04-05T08:36:01.535Z,14.53
2019-04-05T08:37:05.889Z,14.54
2019-04-05T08:38:10.233Z,14.54
2019-04-05T08:39:14.679Z,14.58
2019-04-05T08:40:18.963Z,14.60
2019-04-05T08:41:23.321Z,14.62
2019-04-05T08:42:27.796Z,14.64
2019-04-05T08:43:32.094Z,14.67
2019-04-05T08:44:36.447Z,14.72
2019-04-05T08:45:40.928Z,14.76
2019-04-05T08:46:45.326Z,14.78
2019-04-05T08:47:49.666Z,14.81
2019-04-05T08:48:54.015Z,14.82
2019-04-05T08:49:58.346Z,14.86
2019-04-05T08:51:02.827Z,14.87
2019-04-05T08:52:07.238Z,14.91
2019-04-05T08:53:11.559Z,14.94
2019-04-05T08:54:15.910Z,14.97
2019-04-05T08:55:20.264Z,14.97
2019-04-05T08:56:24.639Z,14.99
2019-04-05T08:57:29.072Z,14.99
2019-04-05T08:58:33.871Z,14.92
2019-04-05T08:59:37.819Z,14.93
2019-04-05T09:00:42.132Z,14.95
2019-04-05T09:01:46.618Z,14.97
2019-04-05T09:02:51.008Z,15.02
2019-04-05T09:03:55.242Z,15.05
2019-04-05T09:04:59.578Z,15.10
2019-04-05T09:06:03.932Z,15.15
2019-04-05T09:07:08.408Z,15.20
2019-04-05T09:08:12.829Z,15.24
2019-04-05T09:09:17.077Z,15.27
2019-04-05T09:10:21.416Z,15.31
2019-04-05T09:11:25.786Z,15.33
2019-04-05T09:12:30.154Z,15.33
2019-04-05T09:13:34.679Z,15.34
2019-04-05T09:14:39.085Z,15.36
2019-04-05T09:15:43.415Z,15.40
2019-04-05T09:16:47.816Z,15.46
2019-04-05T09:17:52.154Z,15.52
2019-04-05T09:18:56.648Z,15.53
2019-04-05T09:20:00.951Z,15.59
2019-04-05T09:21:05.353Z,15.64
2019-04-05T09:22:09.739Z,15.69
2019-04-05T09:23:14.176Z,15.68
2019-04-05T09:24:18.620Z,15.64
2019-04-05T09:25:22.898Z,15.65
2019-04-05T09:26:27.248Z,15.61
2019-04-05T09:27:31.589Z,15.63
2019-04-05T09:28:36.001Z,15.64
2019-04-05T09:29:40.345Z,15.65
2019-04-05T09:30:44.689Z,15.67
2019-04-05T09:31:49.160Z,15.72
2019-04-05T09:32:53.441Z,15.75
2019-04-05T09:33:57.855Z,15.79
2019-04-05T09:35:02.200Z,15.83
2019-04-05T09:36:06.555Z,15.88
2019-04-05T09:37:10.915Z,15.98
2019-04-05T09:38:15.299Z,16.07
2019-04-05T09:39:19.625Z,16.16
2019-04-05T09:40:23.948Z,16.23
2019-04-05T09:41:28.313Z,16.30
2019-04-05T09:42:32.696Z,16.39
2019-04-05T09:43:37.083Z,16.46
2019-04-05T09:44:41.577Z,16.52
2019-04-05T09:45:45.897Z,16.55
2019-04-05T09:46:51.283Z,16.61
2019-04-05T09:47:54.629Z,16.67
2019-04-05T09:48:59.036Z,16.75
2019-04-05T09:50:03.423Z,16.83
2019-04-05T09:51:07.849Z,16.90
2019-04-05T09:52:12.187Z,16.93
2019-04-05T09:53:16.544Z,16.93
2019-04-05T09:54:20.931Z,16.99
2019-04-05T09:55:25.295Z,17.03
2019-04-05T09:56:29.672Z,17.06
2019-04-05T09:57:34.059Z,17.07
2019-04-05T09:58:38.488Z,17.11
2019-04-05T09:59:42.851Z,17.14
2019-04-05T10:00:47.214Z,17.16
2019-04-05T10:01:51.586Z,17.14
2019-04-05T10:02:55.993Z,17.13
2019-04-05T10:04:00.368Z,17.11
2019-04-05T10:05:04.820Z,17.11
2019-04-05T10:06:09.184Z,17.08
2019-04-05T10:07:13.573Z,17.05
2019-04-05T10:08:17.934Z,17.02
2019-04-05T10:09:22.361Z,17.00
2019-04-05T10:10:26.730Z,16.95
2019-04-05T10:11:31.050Z,16.96
2019-04-05T10:12:35.496Z,16.99
2019-04-05T10:13:39.958Z,16.99
2019-04-05T10:14:44.284Z,16.99
2019-04-05T10:15:48.638Z,17.03
2019-04-05T10:16:53.117Z,17.07
2019-04-05T10:17:57.451Z,17.11
2019-04-05T10:19:01.840Z,17.15
2019-04-05T10:20:06.272Z,17.18
2019-04-05T10:21:10.655Z,17.21
2019-04-05T10:22:15.067Z,17.23
2019-04-05T10:23:19.419Z,17.27
2019-04-05T10:24:23.839Z,17.31
2019-04-05T10:25:28.225Z,17.36
2019-04-05T10:26:32.595Z,17.43
2019-04-05T10:27:36.979Z,17.50
2019-04-05T10:28:41.480Z,17.58
2019-04-05T10:29:45.881Z,17.68
2019-04-05T10:30:52.006Z,17.77
2019-04-05T10:31:54.739Z,17.89
2019-04-05T10:32:59.070Z,17.98
2019-04-05T10:34:03.465Z,18.01
2019-04-05T10:35:07.824Z,18.00
2019-04-05T10:36:12.241Z,17.97
2019-04-05T10:37:16.645Z,17.93
2019-04-05T10:38:21.034Z,17.91
2019-04-05T10:39:25.421Z,17.91
2019-04-05T10:40:29.781Z,17.92
2019-04-05T10:41:34.189Z,17.87
2019-04-05T10:42:38.578Z,17.86
2019-04-05T10:43:42.956Z,17.90
2019-04-05T10:44:47.330Z,17.95
2019-04-05T10:45:51.695Z,17.97
2019-04-05T10:46:56.199Z,17.98
2019-04-05T10:48:00.521Z,17.97
2019-04-05T10:49:04.983Z,18.00
2019-04-05T10:50:09.421Z,18.02
2019-04-05T10:51:13.793Z,18.03
2019-04-05T10:52:18.166Z,18.05
2019-04-05T10:53:22.667Z,17.97
2019-04-05T10:54:27.011Z,17.90
2019-04-05T10:55:31.422Z,17.80
2019-04-05T10:56:35.812Z,17.83
2019-04-05T10:57:40.296Z,17.85
2019-04-05T10:58:44.650Z,17.87
2019-04-05T10:59:49.011Z,17.83
2019-04-05T11:00:53.389Z,17.73
2019-04-05T11:01:57.779Z,17.77
2019-04-05T11:03:02.147Z,17.84
2019-04-05T11:04:06.538Z,17.80
2019-04-05T11:05:10.895Z,17.84
2019-04-05T11:06:15.319Z,17.89
2019-04-05T11:07:19.658Z,17.96
2019-04-05T11:08:24.059Z,18.02
2019-04-05T11:09:28.474Z,18.07
2019-04-05T11:10:32.884Z,18.12
2019-04-05T11:11:37.269Z,18.13
2019-04-05T11:12:41.661Z,18.12
2019-04-05T11:13:46.062Z,18.12
2019-04-05T11:14:50.449Z,18.05
2019-04-05T11:15:54.832Z,18.12
2019-04-05T11:16:59.280Z,18.20
2019-04-05T11:18:04.683Z,18.17
2019-04-05T11:19:08.044Z,18.14
2019-04-05T11:20:21.279Z,18.13
2019-04-05T11:21:18.388Z,18.11
2019-04-05T11:22:21.274Z,18.09
2019-04-05T11:23:25.699Z,18.11
2019-04-05T11:24:30.096Z,18.20
2019-04-05T11:25:34.474Z,18.29
2019-04-05T11:26:38.888Z,18.40
2019-04-05T11:27:43.410Z,18.44
2019-04-05T11:28:47.760Z,18.46
2019-04-05T11:29:52.056Z,18.52
2019-04-05T11:30:56.621Z,18.53
2019-04-05T11:32:01.080Z,18.57
2019-04-05T11:33:05.462Z,18.56
2019-04-05T11:34:09.833Z,18.60
2019-04-05T11:35:15.112Z,18.62
2019-04-05T11:36:18.628Z,18.58
2019-04-05T11:37:23.013Z,18.47
2019-04-05T11:38:27.437Z,18.35
2019-04-05T11:39:31.819Z,18.34
2019-04-05T11:40:36.195Z,18.31
2019-04-05T11:41:40.685Z,18.34
2019-04-05T11:42:45.032Z,18.37
2019-04-05T11:43:49.422Z,18.40
2019-04-05T11:44:54.519Z,18.39
2019-04-05T11:45:58.250Z,18.33
2019-04-05T11:47:02.670Z,18.38
2019-04-05T11:48:07.146Z,18.38
2019-04-05T11:49:11.622Z,18.40
2019-04-05T11:50:15.942Z,18.44
2019-04-05T11:51:20.289Z,18.45
2019-04-05T11:52:24.664Z,18.40
2019-04-05T11:53:29.167Z,18.36
2019-04-05T11:54:33.556Z,18.31
2019-04-05T11:55:37.903Z,18.28
2019-04-05T11:56:42.288Z,18.34
2019-04-05T11:57:46.700Z,18.41
2019-04-05T11:58:51.104Z,18.49
2019-04-05T11:59:55.478Z,18.49
2019-04-05T12:00:59.901Z,18.50
2019-04-05T12:02:04.302Z,18.51
2019-04-05T12:03:09.763Z,18.57
2019-04-05T12:04:13.143Z,18.59
2019-04-05T12:05:17.516Z,18.63
2019-04-05T12:06:21.898Z,18.67
2019-04-05T12:07:27.358Z,18.69
2019-04-05T12:08:30.990Z,18.76
2019-04-05T12:09:35.276Z,18.82
2019-04-05T12:10:39.674Z,18.85
2019-04-05T12:11:46.348Z,18.80
2019-04-05T12:12:48.512Z,18.86
2019-04-05T12:13:52.960Z,18.95
2019-04-05T12:14:57.360Z,19.04
2019-04-05T12:16:03.691Z,19.09
2019-04-05T12:17:06.261Z,19.05
2019-04-05T12:18:10.569Z,19.07
2019-04-05T12:19:14.963Z,19.11
2019-04-05T12:20:19.469Z,19.14
2019-04-05T12:21:23.835Z,19.18
2019-04-05T12:22:28.225Z,19.14
2019-04-05T12:23:33.501Z,19.15
2019-04-05T12:24:37.063Z,19.11
2019-04-05T12:25:41.466Z,19.10
2019-04-05T12:26:45.863Z,19.11
2019-04-05T12:27:50.258Z,19.17
2019-04-05T12:28:54.710Z,19.24
2019-04-05T12:29:59.200Z,19.30
2019-04-05T12:31:03.564Z,19.24
2019-04-05T12:32:07.962Z,19.32
2019-04-05T12:33:14.538Z,19.40
2019-04-05T12:34:16.865Z,19.47
2019-04-05T12:35:22.034Z,19.46
2019-04-05T12:36:25.748Z,19.48
2019-04-05T12:37:30.130Z,19.49
2019-04-05T12:38:34.576Z,19.42
2019-04-05T12:39:38.957Z,19.39
2019-04-05T12:40:43.320Z,19.33
2019-04-05T12:41:47.743Z,19.34
2019-04-05T12:42:53.146Z,19.40
2019-04-05T12:43:59.531Z,19.47
2019-04-05T12:45:02.979Z,19.53
2019-04-05T12:46:07.274Z,19.56
2019-04-05T12:47:13.930Z,19.45
2019-04-05T12:48:16.648Z,19.39
2019-04-05T12:49:20.406Z,19.33
2019-04-05T12:50:24.842Z,19.33
2019-04-05T12:51:29.253Z,19.36
2019-04-05T12:52:33.551Z,19.40
2019-04-05T12:53:37.892Z,19.40
2019-04-05T12:54:42.304Z,19.35
2019-04-05T12:55:46.717Z,19.33
2019-04-05T12:56:54.075Z,19.30
2019-04-05T12:57:56.202Z,19.32
2019-04-05T12:58:59.891Z,19.37
2019-04-05T13:00:04.202Z,19.39
2019-04-05T13:01:08.704Z,19.45
2019-04-05T13:02:15.487Z,19.54
2019-04-05T13:03:18.863Z,19.62
2019-04-05T13:04:21.676Z,19.68
2019-04-05T13:05:26.144Z,19.64
2019-04-05T13:06:30.460Z,19.63
2019-04-05T13:07:35.339Z,19.61
2019-04-05T13:08:39.161Z,19.61
2019-04-05T13:09:45.653Z,19.69
2019-04-05T13:10:48.036Z,19.78
2019-04-05T13:11:52.373Z,19.83
2019-04-05T13:12:57.974Z,19.92
2019-04-05T13:14:01.047Z,19.87
2019-04-05T13:15:13.885Z,19.83
2019-04-05T13:16:10.834Z,19.88
2019-04-05T13:17:14.220Z,19.96
2019-04-05T13:18:18.521Z,20.10
2019-04-05T13:19:22.986Z,20.12
2019-04-05T13:20:30.234Z,20.02
2019-04-05T13:21:32.988Z,20.01
2019-04-05T13:22:36.096Z,20.06
2019-04-05T13:23:40.441Z,20.11
2019-04-05T13:24:44.803Z,20.14
2019-04-05T13:25:49.181Z,20.17
2019-04-05T13:26:53.526Z,20.17
2019-04-05T13:27:57.918Z,20.11
2019-04-05T13:29:02.238Z,20.14
2019-04-05T13:30:06.637Z,20.07
2019-04-05T13:31:11.150Z,20.02
2019-04-05T13:32:17.103Z,19.99
2019-04-05T13:33:21.633Z,19.98
2019-04-05T13:34:25.955Z,19.95
2019-04-05T13:35:28.643Z,19.94
2019-04-05T13:36:32.998Z,19.94
2019-04-05T13:37:37.345Z,19.96
2019-04-05T13:38:53.959Z,20.09
2019-04-05T13:39:46.085Z,20.17
2019-04-05T13:40:50.475Z,20.26
2019-04-05T13:41:54.863Z,20.27
2019-04-05T13:43:01.691Z,20.21
2019-04-05T13:44:03.695Z,20.24
2019-04-05T13:45:08.016Z,20.26
2019-04-05T13:46:21.746Z,20.27
2019-04-05T13:47:16.807Z,20.18
2019-04-05T13:48:21.139Z,20.22
2019-04-05T13:49:25.502Z,20.23
2019-04-05T13:50:29.963Z,20.28
2019-04-05T13:51:34.320Z,20.22
2019-04-05T13:52:41.144Z,20.14
2019-04-05T13:53:43.110Z,19.97
2019-04-05T13:54:47.507Z,19.89
2019-04-05T13:55:51.817Z,19.89
2019-04-05T13:56:56.176Z,19.85
2019-04-05T13:58:00.915Z,19.84
2019-04-05T13:59:04.897Z,19.82